Pennsauken, NJ

2:46 PM EDT on August 27, 2016 (GMT -0400)
Terrace Ave | | Change Station

Elev 30 ft 39.94 °N, 75.06 °W | Updated 60 seconds ago

Haze
Haze
91.9 °F
Feels Like 90 °F
N
2.7
Wind Variable Wind from ESE
Gusts 3.6 mph

Today
High -- | Low -- °F
--% Chance of Precip.
Yesterday
High -- | Low -- °F
Precip. -- in
Pressure 30.18 in
Visibility 6.0 miles
Clouds Clear
Heat Index 90 °F
Dew Point 56 °F
Humidity 30%
Rainfall 0.00 in
Snow Depth Not available.
6:23 AM 7:38 PM
Waning Crescent, 22% visible
METAR KPNE 271754Z 06007KT 6SM HZ CLR 32/16 A3019 RMK AO2 SLP220 T03220161 10322 20244 58005
Pressure 30.18 in
Visibility 6.0 miles
Clouds Clear
Heat Index 90 °F
Dew Point 56 °F
Humidity 30%
Rainfall 0.00 in
Snow Depth Not available.
6:23 AM 7:38 PM
Waning Crescent, 22% visible
METAR KPNE 271754Z 06007KT 6SM HZ CLR 32/16 A3019 RMK AO2 SLP220 T03220161 10322 20244 58005

10-Day Weather Forecast

Almanac

Astronomy

Aug. 27, 2016 Rise Set
Actual Time
Civil Twilight
Nautical Twilight
Astronomical Twilight
Moon
Length of Visible Light
Length of Day
Tomorrow will be .
, % of the Moon is Illuminated

Today's Extremes

State Highs State Lows

Community

WunderPhotos

Upload Photos

1,935,399 photos uploaded!

WunderBlog® & News

Nearby

Air Quality

  Air Quality AQ Index Pollutant
Not available.

Snow Depth

Station Depth Elevation

Earthquake Activity

City Distance Mag. Time & Date
Minimum magnitude displayed is 2.5.

Coastal Water Temperatures

Place Temperature

Stations

Nearby Weather Stations

Station Location Temp. Windchill Dew Point Humidity Wind Precip. Elev Updated Type
                   

Watches & Warnings

There are currently no watches in effect.